Time;durP1;ratioP1;P1;durP2;ratioP2;P2;SDS_P1;SDS_P2;PMS_P1;PMS_P2;Temp;Humidity;BMP_temperature;BMP_pressure;BME280_temperature;BME280_humidity;BME280_pressure;Samples;Min_cycle;Max_cycle;Signal;HPM_P1;HPM_P2
2021/06/17 00:00:46;;;;;;;19.33;5.03;;;;;;;;;;5079459;28;20032;-41
2021/06/17 00:03:13;;;;;;;22.30;5.93;;;;;;;;;;5080338;28;20021;-42
2021/06/17 00:05:42;;;;;;;24.20;6.75;;;;;;;;;;5085654;28;20051;-40
2021/06/17 00:08:10;;;;;;;23.98;5.93;;;;;;;;;;5089316;28;20028;-40
2021/06/17 00:10:41;;;;;;;23.70;6.65;;;;;;;;;;5089201;28;20016;-44
2021/06/17 00:13:10;;;;;;;18.35;6.45;;;;;;;;;;5087931;28;20023;-44
2021/06/17 00:15:37;;;;;;;23.77;6.47;;;;;;;;;;5089886;28;20050;-41
2021/06/17 00:18:05;;;;;;;18.35;7.05;;;;;;;;;;5088110;28;20023;-40
2021/06/17 00:20:33;;;;;;;23.05;6.38;;;;;;;;;;5084352;28;20028;-40
2021/06/17 00:23:00;;;;;;;25.30;7.05;;;;;;;;;;5086110;28;20076;-41
2021/06/17 00:25:27;;;;;;;23.42;7.43;;;;;;;;;;5088586;28;20039;-43
2021/06/17 00:27:55;;;;;;;26.60;8.02;;;;;;;;;;5090371;28;20026;-41
2021/06/17 00:30:22;;;;;;;23.00;6.88;;;;;;;;;;5086167;28;20032;-41
2021/06/17 00:32:51;;;;;;;26.58;8.20;;;;;;;;;;5086863;28;20391;-44
2021/06/17 00:35:18;;;;;;;28.77;7.53;;;;;;;;;;5082422;28;20448;-40
2021/06/17 00:37:46;;;;;;;24.02;7.13;;;;;;;;;;5082196;28;20421;-39
2021/06/17 00:40:15;;;;;;;26.70;6.90;;;;;;;;;;5074562;28;20158;-46
2021/06/17 00:42:43;;;;;;;20.70;6.50;;;;;;;;;;5076093;28;20050;-50
2021/06/17 00:45:11;;;;;;;23.75;6.55;;;;;;;;;;5076926;28;20023;-40
2021/06/17 00:47:38;;;;;;;23.65;7.03;;;;;;;;;;5075432;28;20055;-41
2021/06/17 00:50:07;;;;;;;24.15;6.68;;;;;;;;;;5075843;28;20490;-40
2021/06/17 00:52:34;;;;;;;17.60;6.40;;;;;;;;;;5071970;28;20459;-55
2021/06/17 00:55:01;;;;;;;21.50;6.45;;;;;;;;;;5073998;28;20070;-40
2021/06/17 00:57:28;;;;;;;22.88;7.25;;;;;;;;;;5086263;28;20012;-41
2021/06/17 00:59:55;;;;;;;22.02;7.07;;;;;;;;;;5086734;28;20088;-42
2021/06/17 01:02:23;;;;;;;21.23;6.38;;;;;;;;;;5077568;28;20017;-41
2021/06/17 01:04:50;;;;;;;20.50;6.43;;;;;;;;;;5079359;28;20054;-66
2021/06/17 01:07:21;;;;;;;19.70;6.25;;;;;;;;;;5085413;28;20031;-45
2021/06/17 01:10:05;;;;;;;18.20;6.53;;;;;;;;;;5082571;28;20051;-61
2021/06/17 01:12:38;;;;;;;15.85;5.80;;;;;;;;;;5082189;28;20024;-58
2021/06/17 01:15:07;;;;;;;15.90;5.60;;;;;;;;;;5081437;28;20024;-41
2021/06/17 01:17:37;;;;;;;17.90;6.68;;;;;;;;;;5077350;28;20104;-38
2021/06/17 01:20:10;;;;;;;23.63;6.53;;;;;;;;;;5076159;28;20483;-49
2021/06/17 01:22:48;;;;;;;15.70;5.90;;;;;;;;;;5080116;28;20445;-42
2021/06/17 01:25:33;;;;;;;19.25;6.28;;;;;;;;;;5076938;28;20761;-41
2021/06/17 01:28:26;;;;;;;16.48;5.85;;;;;;;;;;5079687;28;20024;-41
2021/06/17 01:30:56;;;;;;;20.63;6.88;;;;;;;;;;5074448;28;20044;-49
2021/06/17 01:33:25;;;;;;;15.65;5.82;;;;;;;;;;5075293;28;20018;-51
2021/06/17 01:35:54;;;;;;;18.30;5.78;;;;;;;;;;5069140;28;20052;-41
2021/06/17 01:38:23;;;;;;;18.77;6.32;;;;;;;;;;5068847;28;20495;-53
2021/06/17 01:40:51;;;;;;;17.08;5.72;;;;;;;;;;5070289;28;20027;-54
2021/06/17 01:43:19;;;;;;;14.38;6.25;;;;;;;;;;5069038;28;20024;-45
2021/06/17 01:45:49;;;;;;;16.23;6.47;;;;;;;;;;5072758;28;20024;-42
2021/06/17 01:48:17;;;;;;;19.38;5.82;;;;;;;;;;5069252;28;20177;-41
2021/06/17 01:50:45;;;;;;;13.32;5.07;;;;;;;;;;5075139;28;20379;-41
2021/06/17 01:53:14;;;;;;;14.77;5.93;;;;;;;;;;5074937;28;20028;-41
2021/06/17 01:55:44;;;;;;;16.23;6.05;;;;;;;;;;5075767;28;20040;-42
2021/06/17 01:58:13;;;;;;;11.52;5.20;;;;;;;;;;5074440;28;20217;-40
2021/06/17 02:00:42;;;;;;;10.52;5.22;;;;;;;;;;5070041;28;20033;-55
2021/06/17 02:03:10;;;;;;;14.77;5.57;;;;;;;;;;5076423;28;20737;-40
2021/06/17 02:05:37;;;;;;;12.60;5.20;;;;;;;;;;5084466;28;20020;-49
2021/06/17 02:08:05;;;;;;;12.10;5.10;;;;;;;;;;5108205;28;20028;-45
2021/06/17 02:10:33;;;;;;;17.25;6.22;;;;;;;;;;5078957;28;20032;-45
2021/06/17 02:13:00;;;;;;;12.02;5.60;;;;;;;;;;5086722;28;20032;-40
2021/06/17 02:15:29;;;;;;;12.15;5.15;;;;;;;;;;5093627;28;20024;-39
2021/06/17 02:17:56;;;;;;;13.57;5.47;;;;;;;;;;5093358;28;20024;-46
2021/06/17 02:20:24;;;;;;;14.88;6.05;;;;;;;;;;5083027;28;20017;-51
2021/06/17 02:22:54;;;;;;;16.52;6.00;;;;;;;;;;5077943;28;20067;-51
2021/06/17 02:25:22;;;;;;;12.68;5.43;;;;;;;;;;5080102;28;20020;-46
2021/06/17 02:27:53;;;;;;;12.32;5.65;;;;;;;;;;5071807;28;20021;-41
2021/06/17 02:30:21;;;;;;;13.02;5.40;;;;;;;;;;5088494;28;20024;-51
2021/06/17 02:32:53;;;;;;;13.60;5.45;;;;;;;;;;5082917;28;20118;-49
2021/06/17 02:35:25;;;;;;;13.55;5.65;;;;;;;;;;5092743;28;20024;-52
2021/06/17 02:37:57;;;;;;;12.80;5.55;;;;;;;;;;5091639;28;20550;-45
2021/06/17 02:40:25;;;;;;;12.60;5.30;;;;;;;;;;5092768;28;20021;-44
2021/06/17 02:42:53;;;;;;;13.35;5.50;;;;;;;;;;5092572;28;20345;-40
2021/06/17 02:45:21;;;;;;;11.25;5.07;;;;;;;;;;5090947;28;20020;-53
2021/06/17 02:47:48;;;;;;;10.25;5.28;;;;;;;;;;5091510;28;20107;-40
2021/06/17 02:50:16;;;;;;;10.10;5.10;;;;;;;;;;5093132;28;20024;-42
2021/06/17 02:52:43;;;;;;;9.75;4.80;;;;;;;;;;5092394;28;20074;-39
2021/06/17 02:55:11;;;;;;;11.35;5.43;;;;;;;;;;5087271;28;20029;-39
2021/06/17 02:57:47;;;;;;;11.55;5.30;;;;;;;;;;5087181;28;20019;-39
2021/06/17 03:00:15;;;;;;;10.95;5.13;;;;;;;;;;5092409;28;20016;-44
2021/06/17 03:02:59;;;;;;;17.35;5.75;;;;;;;;;;5075784;28;20016;-43
2021/06/17 03:05:34;;;;;;;13.68;5.30;;;;;;;;;;5089061;28;20046;-39
2021/06/17 03:08:07;;;;;;;12.60;6.00;;;;;;;;;;5091933;28;20176;-39
2021/06/17 03:10:35;;;;;;;16.85;5.60;;;;;;;;;;5071217;28;20029;-38
2021/06/17 03:13:04;;;;;;;12.07;5.85;;;;;;;;;;5072401;28;20393;-38
2021/06/17 03:15:33;;;;;;;13.63;6.20;;;;;;;;;;5072637;28;20024;-40
2021/06/17 03:18:02;;;;;;;14.00;6.13;;;;;;;;;;5073343;28;20108;-38
2021/06/17 03:20:31;;;;;;;13.98;6.10;;;;;;;;;;5071289;28;20032;-39
2021/06/17 03:22:59;;;;;;;17.25;5.90;;;;;;;;;;5072353;28;20066;-40
2021/06/17 03:25:28;;;;;;;14.60;5.72;;;;;;;;;;5072603;28;20039;-46
2021/06/17 03:28:13;;;;;;;14.88;6.07;;;;;;;;;;5072990;28;20033;-38
2021/06/17 03:30:43;;;;;;;15.88;6.20;;;;;;;;;;5072462;28;20522;-37
2021/06/17 03:33:11;;;;;;;13.07;6.05;;;;;;;;;;5072609;28;20468;-39
2021/06/17 03:35:40;;;;;;;16.15;6.50;;;;;;;;;;5072274;28;20016;-37
2021/06/17 03:38:08;;;;;;;17.42;6.03;;;;;;;;;;5072872;28;20385;-37
2021/06/17 03:40:36;;;;;;;21.98;6.07;;;;;;;;;;5072585;28;20103;-37
2021/06/17 03:43:04;;;;;;;14.57;6.50;;;;;;;;;;5071917;28;20116;-37
2021/06/17 03:45:32;;;;;;;14.38;6.10;;;;;;;;;;5072655;28;20024;-37
2021/06/17 03:48:00;;;;;;;13.43;6.18;;;;;;;;;;5072382;28;20351;-37
2021/06/17 03:50:27;;;;;;;13.48;6.60;;;;;;;;;;5072201;28;20029;-38
2021/06/17 03:52:56;;;;;;;13.27;5.85;;;;;;;;;;5071831;28;20045;-39
2021/06/17 03:55:23;;;;;;;14.65;7.30;;;;;;;;;;5072657;28;20043;-39
2021/06/17 03:57:52;;;;;;;14.20;6.10;;;;;;;;;;5072461;28;20027;-37
2021/06/17 04:00:19;;;;;;;16.80;6.30;;;;;;;;;;5072256;28;20021;-37
2021/06/17 04:02:47;;;;;;;18.10;6.75;;;;;;;;;;5071979;28;20438;-39
2021/06/17 04:05:14;;;;;;;14.80;7.05;;;;;;;;;;5072518;28;20391;-37
2021/06/17 04:07:43;;;;;;;11.93;6.10;;;;;;;;;;5071756;28;20017;-37
2021/06/17 04:10:11;;;;;;;17.10;6.45;;;;;;;;;;5072570;28;20028;-37
2021/06/17 04:12:39;;;;;;;15.15;6.15;;;;;;;;;;5071585;28;20495;-37
2021/06/17 04:15:06;;;;;;;17.38;6.25;;;;;;;;;;5072220;28;20060;-37
2021/06/17 04:17:43;;;;;;;14.93;6.53;;;;;;;;;;5072300;28;20055;-38
2021/06/17 04:20:12;;;;;;;11.77;5.90;;;;;;;;;;5071723;28;20519;-38
2021/06/17 04:22:42;;;;;;;13.68;6.28;;;;;;;;;;5071948;28;20492;-39
2021/06/17 04:25:10;;;;;;;9.90;6.15;;;;;;;;;;5071453;28;20024;-38
2021/06/17 04:27:38;;;;;;;10.77;6.10;;;;;;;;;;5072319;28;20103;-39
2021/06/17 04:30:06;;;;;;;17.20;7.00;;;;;;;;;;5071326;28;20036;-38
2021/06/17 04:32:33;;;;;;;14.05;6.10;;;;;;;;;;5072000;28;20040;-38
2021/06/17 04:35:00;;;;;;;12.32;5.85;;;;;;;;;;5071562;28;20032;-39
2021/06/17 04:37:29;;;;;;;9.98;5.57;;;;;;;;;;5072081;28;20017;-41
2021/06/17 04:39:57;;;;;;;11.93;6.50;;;;;;;;;;5071251;28;20097;-38
2021/06/17 04:42:24;;;;;;;11.60;6.50;;;;;;;;;;5071819;28;20089;-39
2021/06/17 04:44:52;;;;;;;11.73;6.22;;;;;;;;;;5071365;28;20116;-37
2021/06/17 04:47:20;;;;;;;10.23;5.90;;;;;;;;;;5072006;28;20025;-39
2021/06/17 04:49:49;;;;;;;10.93;5.72;;;;;;;;;;5071780;28;20036;-37
2021/06/17 04:52:20;;;;;;;11.02;5.75;;;;;;;;;;5070882;28;20518;-39
2021/06/17 04:54:47;;;;;;;10.13;5.55;;;;;;;;;;5071669;28;20096;-39
2021/06/17 04:57:14;;;;;;;11.05;5.78;;;;;;;;;;5070888;28;20039;-38
2021/06/17 04:59:41;;;;;;;12.40;5.88;;;;;;;;;;5071606;28;20017;-42
2021/06/17 05:02:08;;;;;;;11.00;6.03;;;;;;;;;;5070591;28;20019;-38
2021/06/17 05:04:36;;;;;;;12.00;5.78;;;;;;;;;;5071608;28;20074;-38
2021/06/17 05:12:16;;;;;;;13.45;6.15;;;;;;;;;;5070985;28;20043;-37
2021/06/17 05:14:46;;;;;;;14.55;5.65;;;;;;;;;;5071514;28;20012;-37
2021/06/17 05:17:13;;;;;;;10.90;5.50;;;;;;;;;;5070970;28;20056;-38
2021/06/17 05:19:40;;;;;;;9.23;5.18;;;;;;;;;;5082647;28;20028;-38
2021/06/17 05:22:09;;;;;;;9.63;5.68;;;;;;;;;;5090869;28;20023;-40
2021/06/17 05:24:36;;;;;;;12.27;6.30;;;;;;;;;;5091673;28;20399;-40
2021/06/17 05:27:03;;;;;;;11.50;5.65;;;;;;;;;;5095507;28;20019;-38
2021/06/17 05:29:30;;;;;;;9.57;5.40;;;;;;;;;;5094470;28;20047;-38
2021/06/17 05:31:57;;;;;;;9.70;5.55;;;;;;;;;;5095623;28;20027;-38
2021/06/17 05:34:24;;;;;;;10.82;5.50;;;;;;;;;;5095357;28;20114;-39
2021/06/17 05:36:51;;;;;;;8.98;5.32;;;;;;;;;;5095566;28;20029;-39
2021/06/17 05:39:19;;;;;;;9.32;5.85;;;;;;;;;;5095257;28;20471;-37
2021/06/17 05:41:46;;;;;;;13.80;5.53;;;;;;;;;;5095360;28;20024;-38
2021/06/17 05:44:16;;;;;;;10.15;5.43;;;;;;;;;;5094819;28;20031;-38
2021/06/17 05:46:43;;;;;;;10.65;5.63;;;;;;;;;;5243075;22;20558;-38
2021/06/17 05:49:10;;;;;;;11.05;5.28;;;;;;;;;;5071260;28;20043;-38
2021/06/17 05:51:37;;;;;;;9.05;4.70;;;;;;;;;;5075151;28;20032;-38
2021/06/17 05:54:04;;;;;;;10.38;5.65;;;;;;;;;;5074368;28;20093;-37
2021/06/17 05:56:31;;;;;;;10.43;5.22;;;;;;;;;;5074732;28;20013;-38
2021/06/17 05:58:58;;;;;;;9.90;5.10;;;;;;;;;;5075121;28;20035;-38
2021/06/17 06:01:25;;;;;;;8.75;5.20;;;;;;;;;;5073887;28;20091;-38
2021/06/17 06:03:53;;;;;;;10.95;5.45;;;;;;;;;;5074727;28;20099;-38
2021/06/17 06:06:20;;;;;;;10.45;5.03;;;;;;;;;;5074513;28;20422;-37
2021/06/17 06:08:47;;;;;;;8.65;4.85;;;;;;;;;;5074615;28;20028;-39
2021/06/17 06:11:14;;;;;;;10.32;5.18;;;;;;;;;;5074062;28;20390;-38
2021/06/17 06:13:41;;;;;;;8.30;4.88;;;;;;;;;;5074568;28;20099;-38
2021/06/17 06:16:08;;;;;;;10.52;4.88;;;;;;;;;;5073705;28;20035;-38
2021/06/17 06:18:35;;;;;;;9.00;4.90;;;;;;;;;;5074755;28;20025;-38
2021/06/17 06:21:02;;;;;;;8.90;4.55;;;;;;;;;;5074182;28;20029;-39
2021/06/17 06:23:30;;;;;;;8.57;4.85;;;;;;;;;;5074358;28;20051;-38
2021/06/17 06:25:58;;;;;;;10.10;4.65;;;;;;;;;;5073730;28;20021;-38
2021/06/17 06:28:26;;;;;;;9.30;4.80;;;;;;;;;;5074278;28;20482;-38
2021/06/17 06:30:53;;;;;;;8.80;4.95;;;;;;;;;;5073988;28;20029;-36
2021/06/17 06:33:21;;;;;;;8.95;4.40;;;;;;;;;;5073699;28;20009;-39
2021/06/17 06:35:49;;;;;;;9.05;4.82;;;;;;;;;;5074261;28;20020;-37
2021/06/17 06:38:16;;;;;;;8.70;4.70;;;;;;;;;;5073789;28;20020;-38
2021/06/17 06:40:43;;;;;;;9.07;4.70;;;;;;;;;;5074158;28;20016;-37
2021/06/17 06:43:15;;;;;;;7.65;4.28;;;;;;;;;;5073533;28;20103;-38
2021/06/17 06:45:42;;;;;;;7.95;4.78;;;;;;;;;;5074283;28;20005;-39
2021/06/17 06:48:10;;;;;;;7.90;4.68;;;;;;;;;;5073063;28;20045;-39
2021/06/17 06:50:37;;;;;;;8.25;4.50;;;;;;;;;;5073871;28;20372;-38
2021/06/17 06:53:05;;;;;;;15.70;4.55;;;;;;;;;;5073505;28;20024;-37
2021/06/17 06:55:32;;;;;;;6.70;4.15;;;;;;;;;;5073896;28;20024;-38
2021/06/17 06:57:59;;;;;;;10.52;4.10;;;;;;;;;;5072938;28;20123;-38
2021/06/17 07:00:26;;;;;;;8.35;4.40;;;;;;;;;;5073993;28;20028;-39
2021/06/17 07:02:53;;;;;;;9.15;4.70;;;;;;;;;;5069576;28;20112;-37
2021/06/17 07:05:20;;;;;;;6.60;3.78;;;;;;;;;;5053808;28;20017;-36
2021/06/17 07:07:47;;;;;;;6.75;4.00;;;;;;;;;;5033801;28;20057;-37
2021/06/17 07:10:15;;;;;;;9.25;4.40;;;;;;;;;;5049342;28;20081;-36
2021/06/17 07:12:42;;;;;;;9.02;4.15;;;;;;;;;;5033852;28;20028;-37
2021/06/17 07:15:10;;;;;;;6.55;3.63;;;;;;;;;;5051957;28;20033;-37
2021/06/17 07:17:37;;;;;;;7.72;3.92;;;;;;;;;;5053196;28;20029;-36
2021/06/17 07:20:04;;;;;;;6.72;4.20;;;;;;;;;;5052518;28;20049;-37
2021/06/17 07:22:32;;;;;;;7.40;3.97;;;;;;;;;;5052957;28;20032;-37
2021/06/17 07:24:59;;;;;;;8.02;3.70;;;;;;;;;;5052879;28;20075;-37
2021/06/17 07:27:26;;;;;;;6.45;3.60;;;;;;;;;;5053065;28;20052;-37
2021/06/17 07:29:53;;;;;;;6.95;3.85;;;;;;;;;;5052763;28;20040;-36
2021/06/17 07:32:20;;;;;;;6.82;4.35;;;;;;;;;;5053072;28;20021;-37
2021/06/17 07:34:47;;;;;;;6.63;3.75;;;;;;;;;;5052237;28;20029;-37
2021/06/17 07:37:15;;;;;;;8.00;4.40;;;;;;;;;;5052995;28;20427;-38
2021/06/17 07:39:43;;;;;;;7.30;3.88;;;;;;;;;;5052636;28;20021;-38
2021/06/17 07:42:10;;;;;;;7.45;3.47;;;;;;;;;;5052665;28;20025;-38
2021/06/17 07:44:38;;;;;;;6.60;3.58;;;;;;;;;;5052576;28;20516;-37
2021/06/17 07:47:05;;;;;;;6.00;3.58;;;;;;;;;;5051491;28;20052;-38
2021/06/17 07:49:32;;;;;;;5.10;3.60;;;;;;;;;;5052598;28;20127;-38
2021/06/17 07:51:59;;;;;;;7.72;3.83;;;;;;;;;;5052466;28;20017;-37
2021/06/17 07:54:26;;;;;;;8.05;3.97;;;;;;;;;;5052563;28;20021;-38
2021/06/17 07:56:53;;;;;;;6.50;3.28;;;;;;;;;;5051792;28;20022;-38
2021/06/17 07:59:22;;;;;;;7.93;3.97;;;;;;;;;;5052768;28;20029;-37
2021/06/17 08:01:50;;;;;;;6.18;3.35;;;;;;;;;;5052197;28;20483;-37
2021/06/17 08:04:18;;;;;;;5.95;3.47;;;;;;;;;;5052423;28;20036;-38
2021/06/17 08:06:45;;;;;;;5.57;3.38;;;;;;;;;;5052230;28;20151;-37
2021/06/17 08:09:18;;;;;;;5.97;3.20;;;;;;;;;;5034682;28;20037;-38
2021/06/17 08:11:45;;;;;;;6.28;3.10;;;;;;;;;;5052018;28;20028;-37
2021/06/17 08:14:12;;;;;;;5.50;3.08;;;;;;;;;;5034365;28;20044;-38
2021/06/17 08:16:39;;;;;;;5.88;3.38;;;;;;;;;;5051365;28;20392;-38
2021/06/17 08:19:06;;;;;;;8.38;3.50;;;;;;;;;;5052311;28;20492;-37
2021/06/17 08:21:33;;;;;;;6.88;3.22;;;;;;;;;;5052414;28;20025;-37
2021/06/17 08:24:01;;;;;;;6.88;3.35;;;;;;;;;;5051210;28;20024;-38
2021/06/17 08:26:28;;;;;;;5.18;3.40;;;;;;;;;;5051813;28;20028;-44
2021/06/17 08:28:55;;;;;;;5.47;3.10;;;;;;;;;;5051356;28;20044;-40
2021/06/17 08:31:22;;;;;;;5.18;3.35;;;;;;;;;;5052268;28;20075;-39
2021/06/17 08:33:49;;;;;;;5.82;3.47;;;;;;;;;;5051007;28;20048;-40
2021/06/17 08:36:17;;;;;;;6.10;3.22;;;;;;;;;;5051908;28;20021;-36
2021/06/17 08:38:45;;;;;;;7.00;3.55;;;;;;;;;;5051553;28;20028;-37
2021/06/17 08:41:13;;;;;;;5.22;2.90;;;;;;;;;;5052107;28;20028;-36
2021/06/17 08:43:40;;;;;;;7.15;3.33;;;;;;;;;;5050877;28;20032;-36
2021/06/17 08:46:07;;;;;;;5.95;3.05;;;;;;;;;;5051162;28;20071;-37
2021/06/17 08:48:35;;;;;;;4.53;2.83;;;;;;;;;;5052048;28;20086;-37
2021/06/17 08:51:03;;;;;;;4.00;2.50;;;;;;;;;;5051134;28;20040;-36
2021/06/17 08:53:30;;;;;;;6.22;3.17;;;;;;;;;;5033797;28;20025;-35
2021/06/17 08:55:57;;;;;;;5.55;3.10;;;;;;;;;;5051285;28;20021;-35
2021/06/17 08:58:24;;;;;;;5.80;3.05;;;;;;;;;;5051678;28;20021;-35
2021/06/17 09:00:52;;;;;;;6.45;2.72;;;;;;;;;;5053927;28;20016;-34
2021/06/17 09:03:19;;;;;;;5.38;3.38;;;;;;;;;;5055722;28;20383;-37
2021/06/17 09:05:57;;;;;;;5.65;2.80;;;;;;;;;;5054795;28;20162;-35
2021/06/17 09:08:30;;;;;;;6.05;2.95;;;;;;;;;;5055321;28;20150;-36
2021/06/17 09:10:57;;;;;;;6.50;3.28;;;;;;;;;;5055276;28;20017;-37
2021/06/17 09:13:32;;;;;;;5.78;2.97;;;;;;;;;;5055793;28;20013;-37
2021/06/17 09:16:00;;;;;;;6.10;2.60;;;;;;;;;;5054883;28;20100;-36
2021/06/17 09:18:31;;;;;;;7.22;3.10;;;;;;;;;;5055471;28;20574;-35
2021/06/17 09:21:01;;;;;;;6.35;2.80;;;;;;;;;;5054955;28;20082;-37
2021/06/17 09:23:38;;;;;;;5.32;2.78;;;;;;;;;;5055461;28;20106;-36
2021/06/17 09:26:10;;;;;;;7.28;3.10;;;;;;;;;;5054921;28;20511;-35
2021/06/17 09:28:46;;;;;;;4.87;2.73;;;;;;;;;;5055183;28;20037;-36
2021/06/17 09:31:17;;;;;;;4.85;2.45;;;;;;;;;;5055143;28;20255;-35
2021/06/17 09:33:45;;;;;;;6.47;2.75;;;;;;;;;;5055296;28;20060;-36
2021/06/17 09:36:12;;;;;;;4.07;2.58;;;;;;;;;;5055019;28;20468;-37
2021/06/17 09:38:45;;;;;;;4.43;2.63;;;;;;;;;;5054614;28;20033;-36
2021/06/17 09:41:12;;;;;;;3.85;2.58;;;;;;;;;;5055271;28;20024;-36
2021/06/17 09:43:43;;;;;;;6.47;2.75;;;;;;;;;;5054930;28;20032;-35
2021/06/17 09:46:11;;;;;;;5.05;2.97;;;;;;;;;;5054377;28;20021;-38
2021/06/17 09:48:51;;;;;;;4.32;2.40;;;;;;;;;;5054666;28;20048;-38
2021/06/17 09:51:34;;;;;;;6.03;2.58;;;;;;;;;;5055067;28;20032;-38
2021/06/17 09:54:39;;;;;;;5.75;2.75;;;;;;;;;;5036598;28;20517;-39
2021/06/17 09:57:08;;;;;;;4.28;2.50;;;;;;;;;;4954154;29;20039;-36
2021/06/17 09:59:49;;;;;;;4.10;2.58;;;;;;;;;;5038571;28;20095;-39
2021/06/17 10:02:38;;;;;;;4.10;2.53;;;;;;;;;;5055036;28;20017;-38
2021/06/17 10:05:30;;;;;;;4.65;2.67;;;;;;;;;;5053956;28;20420;-39
2021/06/17 10:07:58;;;;;;;5.65;2.53;;;;;;;;;;5052355;28;20112;-41
2021/06/17 10:10:29;;;;;;;4.85;2.63;;;;;;;;;;5053631;28;20029;-38
2021/06/17 10:12:58;;;;;;;4.13;2.40;;;;;;;;;;5054708;28;20021;-37
2021/06/17 10:15:26;;;;;;;3.78;2.10;;;;;;;;;;5053501;28;20098;-37
2021/06/17 10:17:53;;;;;;;3.90;2.30;;;;;;;;;;5054397;28;20495;-36
2021/06/17 10:20:23;;;;;;;4.95;2.40;;;;;;;;;;5054172;28;20028;-37
2021/06/17 10:22:54;;;;;;;4.85;2.22;;;;;;;;;;5054403;28;20095;-36
2021/06/17 10:25:26;;;;;;;3.88;2.20;;;;;;;;;;5053733;28;20653;-38
2021/06/17 10:27:57;;;;;;;3.65;2.30;;;;;;;;;;5054109;28;20036;-37
2021/06/17 10:30:41;;;;;;;4.67;2.40;;;;;;;;;;5053876;28;20017;-37
2021/06/17 10:33:26;;;;;;;3.95;2.42;;;;;;;;;;5054154;28;20025;-35
2021/06/17 10:35:53;;;;;;;4.05;2.40;;;;;;;;;;5053324;28;20405;-38
2021/06/17 10:38:20;;;;;;;4.57;2.30;;;;;;;;;;5053992;28;20473;-38
2021/06/17 10:40:47;;;;;;;3.45;1.90;;;;;;;;;;5053347;28;20021;-37
2021/06/17 10:43:22;;;;;;;4.05;1.70;;;;;;;;;;5053888;28;20039;-37
2021/06/17 10:45:51;;;;;;;5.03;2.60;;;;;;;;;;5052826;28;20484;-37
2021/06/17 10:48:25;;;;;;;7.22;2.35;;;;;;;;;;5053537;28;20060;-38
2021/06/17 10:50:53;;;;;;;2.78;1.90;;;;;;;;;;5053251;28;20476;-42
2021/06/17 10:53:32;;;;;;;5.35;2.03;;;;;;;;;;5053686;28;20435;-42
2021/06/17 10:56:02;;;;;;;4.00;1.98;;;;;;;;;;5052918;28;20032;-40
2021/06/17 10:58:41;;;;;;;5.13;2.20;;;;;;;;;;5053803;28;20100;-41
2021/06/17 11:01:28;;;;;;;4.15;2.33;;;;;;;;;;5053242;28;20047;-36
2021/06/17 11:04:05;;;;;;;3.55;2.20;;;;;;;;;;5061646;28;20021;-36
2021/06/17 11:06:51;;;;;;;5.13;2.00;;;;;;;;;;5072909;28;20020;-36
2021/06/17 11:09:36;;;;;;;5.93;1.80;;;;;;;;;;5073361;28;20033;-35
2021/06/17 11:12:04;;;;;;;5.68;2.22;;;;;;;;;;5072755;28;20128;-35
2021/06/17 11:14:51;;;;;;;4.75;2.05;;;;;;;;;;5073619;28;20056;-38
2021/06/17 11:17:30;;;;;;;3.50;1.88;;;;;;;;;;5072893;28;20032;-35
2021/06/17 11:20:05;;;;;;;5.57;2.60;;;;;;;;;;5073333;28;20537;-38
2021/06/17 11:22:48;;;;;;;4.13;2.40;;;;;;;;;;5072269;28;20100;-37
2021/06/17 11:25:18;;;;;;;2.97;1.80;;;;;;;;;;5073190;28;20383;-36
2021/06/17 11:28:03;;;;;;;3.50;1.95;;;;;;;;;;5072909;28;20044;-36
2021/06/17 11:30:40;;;;;;;2.95;1.80;;;;;;;;;;5073114;28;20033;-34
2021/06/17 11:33:19;;;;;;;3.90;1.83;;;;;;;;;;5072724;28;20028;-35
2021/06/17 11:35:58;;;;;;;5.15;1.80;;;;;;;;;;5073213;28;20028;-37
2021/06/17 11:38:26;;;;;;;3.28;2.08;;;;;;;;;;5072866;28;20020;-38
2021/06/17 11:40:54;;;;;;;4.70;1.98;;;;;;;;;;5072307;28;20380;-36
2021/06/17 11:43:27;;;;;;;4.55;1.98;;;;;;;;;;5072826;28;20025;-36
2021/06/17 11:45:55;;;;;;;6.95;2.00;;;;;;;;;;5072053;28;20024;-37
2021/06/17 11:48:22;;;;;;;2.58;1.70;;;;;;;;;;5072262;28;20495;-35
2021/06/17 11:50:50;;;;;;;3.40;1.90;;;;;;;;;;5072280;28;20066;-36
2021/06/17 11:53:18;;;;;;;2.97;1.70;;;;;;;;;;5072418;28;20020;-37
2021/06/17 11:55:46;;;;;;;3.67;1.80;;;;;;;;;;5072242;28;20021;-36
2021/06/17 11:58:13;;;;;;;5.30;1.92;;;;;;;;;;5072078;28;20380;-38
2021/06/17 12:00:40;;;;;;;5.15;2.10;;;;;;;;;;5071937;28;20414;-37
2021/06/17 12:03:19;;;;;;;6.55;2.28;;;;;;;;;;5072437;28;20070;-36
2021/06/17 12:05:46;;;;;;;5.88;2.60;;;;;;;;;;5072038;28;20082;-36
2021/06/17 12:08:14;;;;;;;4.03;1.80;;;;;;;;;;5072146;28;20045;-37
2021/06/17 12:10:42;;;;;;;3.22;1.90;;;;;;;;;;5071885;28;20109;-35
2021/06/17 12:13:10;;;;;;;3.78;2.38;;;;;;;;;;5072305;28;20379;-38
2021/06/17 12:15:42;;;;;;;3.13;1.85;;;;;;;;;;5059423;28;20036;-35
2021/06/17 12:18:11;;;;;;;2.67;1.75;;;;;;;;;;5051777;28;20025;-37
2021/06/17 12:20:42;;;;;;;3.92;2.00;;;;;;;;;;5052215;28;20087;-37
2021/06/17 12:23:24;;;;;;;5.70;1.90;;;;;;;;;;5051437;28;20116;-35
2021/06/17 12:25:58;;;;;;;5.93;2.13;;;;;;;;;;5051761;28;20044;-36
2021/06/17 12:28:26;;;;;;;4.07;1.92;;;;;;;;;;5051300;28;20091;-37
2021/06/17 12:30:54;;;;;;;4.82;2.05;;;;;;;;;;5052030;28;20104;-37
2021/06/17 12:33:25;;;;;;;3.72;2.35;;;;;;;;;;5051531;28;20075;-36
2021/06/17 12:36:15;;;;;;;3.20;1.60;;;;;;;;;;5051716;28;20078;-38
2021/06/17 12:38:42;;;;;;;5.40;2.30;;;;;;;;;;5051063;28;20029;-37
2021/06/17 12:41:11;;;;;;;3.97;2.30;;;;;;;;;;5051905;28;20013;-38
2021/06/17 12:43:43;;;;;;;5.20;2.10;;;;;;;;;;5051443;28;20024;-38
2021/06/17 12:46:10;;;;;;;4.88;2.25;;;;;;;;;;5051542;28;20045;-37
2021/06/17 12:54:07;;;;;;;4.63;2.33;;;;;;;;;;5050834;28;20112;-34
2021/06/17 12:56:38;;;;;;;6.28;2.28;;;;;;;;;;5045457;28;20029;-36
2021/06/17 12:59:05;;;;;;;6.35;2.30;;;;;;;;;;5044770;28;20104;-39
2021/06/17 13:01:48;;;;;;;4.38;2.10;;;;;;;;;;5039498;28;20032;-42
2021/06/17 13:04:16;;;;;;;14.98;2.70;;;;;;;;;;5048802;28;20063;-37
2021/06/17 13:06:44;;;;;;;4.63;2.30;;;;;;;;;;5050716;28;20028;-35
2021/06/17 13:09:20;;;;;;;4.00;2.38;;;;;;;;;;5050764;28;20078;-44
2021/06/17 13:11:47;;;;;;;12.27;2.15;;;;;;;;;;5051127;28;20377;-38
2021/06/17 13:14:14;;;;;;;5.97;2.35;;;;;;;;;;5048553;28;20025;-38
2021/06/17 13:16:41;;;;;;;6.85;2.42;;;;;;;;;;5050676;28;20016;-39
2021/06/17 13:19:11;;;;;;;5.18;2.53;;;;;;;;;;5049361;28;20016;-37
2021/06/17 13:21:39;;;;;;;8.80;2.35;;;;;;;;;;5050143;28;20021;-39
2021/06/17 13:24:19;;;;;;;5.10;2.17;;;;;;;;;;5050113;28;20066;-33
2021/06/17 13:26:46;;;;;;;9.02;2.50;;;;;;;;;;5049140;28;20108;-41
2021/06/17 13:29:14;;;;;;;5.43;2.65;;;;;;;;;;5050735;28;20033;-40
2021/06/17 13:31:41;;;;;;;5.18;2.15;;;;;;;;;;5050384;28;20049;-33
2021/06/17 13:34:09;;;;;;;9.57;2.20;;;;;;;;;;5050864;28;20032;-37
2021/06/17 13:36:37;;;;;;;6.57;2.50;;;;;;;;;;5048702;28;20105;-43
2021/06/17 13:39:05;;;;;;;5.18;2.35;;;;;;;;;;5049828;28;20025;-39
2021/06/17 13:41:34;;;;;;;4.60;2.28;;;;;;;;;;5050027;28;20079;-48
2021/06/17 13:44:01;;;;;;;7.30;2.10;;;;;;;;;;5051021;28;20028;-45
2021/06/17 13:46:28;;;;;;;4.47;2.13;;;;;;;;;;5051152;28;20037;-52
2021/06/17 13:48:55;;;;;;;4.25;2.05;;;;;;;;;;5045544;28;20521;-42
2021/06/17 13:51:23;;;;;;;9.18;2.65;;;;;;;;;;5038196;28;20057;-38
2021/06/17 13:53:50;;;;;;;4.97;2.30;;;;;;;;;;5046882;28;20017;-43
2021/06/17 13:56:17;;;;;;;13.38;2.20;;;;;;;;;;5047297;28;20030;-37
2021/06/17 13:58:44;;;;;;;5.65;2.55;;;;;;;;;;5048781;28;20021;-40
2021/06/17 14:01:12;;;;;;;8.95;2.60;;;;;;;;;;5046647;28;20122;-41
2021/06/17 14:03:40;;;;;;;5.78;2.20;;;;;;;;;;5049986;28;20037;-39
2021/06/17 14:06:08;;;;;;;3.95;2.08;;;;;;;;;;5046949;28;20128;-40
2021/06/17 14:08:35;;;;;;;7.07;2.58;;;;;;;;;;5043381;28;20025;-36
2021/06/17 14:11:03;;;;;;;9.25;2.25;;;;;;;;;;5049122;28;20027;-35
2021/06/17 14:13:30;;;;;;;4.53;1.77;;;;;;;;;;5047393;28;20498;-42
2021/06/17 14:15:57;;;;;;;4.70;2.15;;;;;;;;;;5048717;28;20029;-41
2021/06/17 14:18:24;;;;;;;6.47;2.13;;;;;;;;;;5050977;28;20024;-43
2021/06/17 14:20:51;;;;;;;7.18;2.45;;;;;;;;;;5047380;28;20009;-34
2021/06/17 14:23:18;;;;;;;14.38;2.38;;;;;;;;;;5043872;28;20021;-38
2021/06/17 14:25:47;;;;;;;8.57;2.35;;;;;;;;;;5044977;28;20009;-35
2021/06/17 14:28:14;;;;;;;6.32;2.10;;;;;;;;;;5052036;28;20021;-43
2021/06/17 14:30:41;;;;;;;8.45;2.13;;;;;;;;;;5044322;28;20120;-35
2021/06/17 14:33:08;;;;;;;7.00;1.83;;;;;;;;;;5048461;28;20029;-36
2021/06/17 14:35:38;;;;;;;6.63;2.78;;;;;;;;;;5048343;28;20025;-35
2021/06/17 14:38:06;;;;;;;10.38;1.90;;;;;;;;;;5044944;28;20017;-40
2021/06/17 14:40:33;;;;;;;5.95;2.00;;;;;;;;;;5043987;28;20033;-42
2021/06/17 14:43:00;;;;;;;3.63;1.92;;;;;;;;;;5045592;28;20017;-36
2021/06/17 14:45:27;;;;;;;9.52;1.98;;;;;;;;;;5045439;28;20033;-38
2021/06/17 14:47:55;;;;;;;3.17;1.70;;;;;;;;;;5046991;28;20029;-39
2021/06/17 14:50:22;;;;;;;3.38;1.80;;;;;;;;;;5034508;28;20034;-37
2021/06/17 14:52:49;;;;;;;6.40;2.03;;;;;;;;;;5033064;28;20531;-37
2021/06/17 14:55:19;;;;;;;11.25;1.85;;;;;;;;;;5022109;28;20443;-40
2021/06/17 14:57:46;;;;;;;7.78;1.98;;;;;;;;;;5044184;28;20354;-40
2021/06/17 15:00:13;;;;;;;7.82;1.95;;;;;;;;;;5042063;28;20013;-36
2021/06/17 15:02:40;;;;;;;5.95;2.00;;;;;;;;;;5049773;28;20117;-40